createdAt,value
2023-05-08T00:01:10.527Z,92965.81
2023-05-08T00:03:40.122Z,92966.94
2023-05-08T00:06:10.155Z,92961.63
2023-05-08T00:08:42.261Z,92961.75
2023-05-08T00:11:11.631Z,92957.78
2023-05-08T00:13:41.845Z,92952.34
2023-05-08T00:16:12.015Z,92947.19
2023-05-08T00:18:41.916Z,92939.28
2023-05-08T00:21:11.315Z,92948.09
2023-05-08T00:23:42.158Z,92939.16
2023-05-08T00:26:11.639Z,92937.31
2023-05-08T00:28:41.452Z,92943.31
2023-05-08T00:31:10.998Z,92942.94
2023-05-08T00:33:40.433Z,92947.59
2023-05-08T00:36:10.418Z,92948.34
2023-05-08T00:38:41.214Z,92933.97
2023-05-08T00:41:10.679Z,92944.16
2023-05-08T00:43:40.447Z,92943.88
2023-05-08T00:49:45.276Z,92944.00
2023-05-08T00:52:15.428Z,92933.50
2023-05-08T00:54:45.287Z,92937.91
2023-05-08T00:57:15.236Z,92941.69
2023-05-08T00:59:47.455Z,92940.38
2023-05-08T01:02:17.481Z,92948.16
2023-05-08T01:04:49.975Z,92950.59
2023-05-08T01:07:20.734Z,92944.44
2023-05-08T01:09:50.902Z,92951.41
2023-05-08T01:12:28.507Z,92957.16
2023-05-08T01:15:17.194Z,92954.66
2023-05-08T01:18:03.543Z,92948.09
2023-05-08T01:20:48.120Z,92956.25
2023-05-08T01:24:20.100Z,92950.03
2023-05-08T01:27:37.122Z,92952.63
2023-05-08T01:30:57.335Z,92947.50
2023-05-08T01:33:37.414Z,92947.63
2023-05-08T01:36:25.608Z,92951.88
2023-05-08T01:39:06.105Z,92951.50
2023-05-08T01:41:38.602Z,92948.47
2023-05-08T01:44:17.327Z,92946.78
2023-05-08T01:46:51.728Z,92940.78
2023-05-08T01:49:29.368Z,92946.03
2023-05-08T01:52:04.768Z,92947.81
2023-05-08T01:54:52.093Z,92948.81
2023-05-08T01:57:26.013Z,92943.91
2023-05-08T01:59:59.794Z,92948.91
2023-05-08T02:02:32.948Z,92951.50
2023-05-08T02:05:07.031Z,92950.50
2023-05-08T02:07:39.063Z,92953.94
2023-05-08T02:10:11.071Z,92959.69
2023-05-08T02:12:42.614Z,92952.44
2023-05-08T02:15:14.981Z,92946.25
2023-05-08T02:17:46.914Z,92948.84
2023-05-08T02:20:19.121Z,92945.13
2023-05-08T02:22:52.925Z,92944.91
2023-05-08T02:25:22.968Z,92945.66
2023-05-08T02:27:55.916Z,92941.84
2023-05-08T02:30:27.713Z,92934.72
2023-05-08T02:33:00.709Z,92934.53
2023-05-08T02:35:33.543Z,92936.84
2023-05-08T02:38:04.797Z,92928.94
2023-05-08T02:40:35.268Z,92937.50
2023-05-08T02:43:04.870Z,92946.53
2023-05-08T02:45:41.848Z,92936.81
2023-05-08T02:48:15.788Z,92934.84
2023-05-08T02:50:56.744Z,92933.91
2023-05-08T02:53:34.783Z,92932.44
2023-05-08T02:56:12.450Z,92924.47
2023-05-08T02:58:47.692Z,92929.38
2023-05-08T03:01:26.365Z,92932.59
2023-05-08T03:04:05.217Z,92928.78
2023-05-08T03:06:43.505Z,92928.59
2023-05-08T03:09:22.242Z,92934.63
2023-05-08T03:11:59.178Z,92937.94
2023-05-08T03:14:31.003Z,92933.38
2023-05-08T03:17:02.933Z,92938.41
2023-05-08T03:19:39.786Z,92938.94
2023-05-08T03:22:12.796Z,92931.88
2023-05-08T03:24:45.355Z,92934.28
2023-05-08T03:27:16.229Z,92939.38
2023-05-08T03:29:47.900Z,92938.09
2023-05-08T03:32:18.801Z,92937.28
2023-05-08T03:34:48.964Z,92942.28
2023-05-08T03:37:20.554Z,92939.41
2023-05-08T03:39:50.170Z,92938.88
2023-05-08T03:42:22.635Z,92945.66
2023-05-08T03:44:54.296Z,92946.19
2023-05-08T03:50:44.902Z,92945.59
2023-05-08T03:53:14.433Z,92951.75
2023-05-08T03:55:43.969Z,92948.97
2023-05-08T03:58:21.264Z,92958.25
2023-05-08T04:01:03.723Z,92954.59
2023-05-08T04:03:51.391Z,92944.94
2023-05-08T04:06:42.057Z,92949.84
2023-05-08T04:09:25.052Z,92942.56
2023-05-08T04:12:04.072Z,92944.75
2023-05-08T04:14:42.557Z,92948.53
2023-05-08T04:17:16.229Z,92938.56
2023-05-08T04:19:49.399Z,92949.09
2023-05-08T04:22:23.653Z,92955.16
2023-05-08T04:24:54.725Z,92949.97
2023-05-08T04:27:24.608Z,92948.00
2023-05-08T04:29:53.908Z,92945.00
2023-05-08T04:32:24.374Z,92951.84
2023-05-08T04:34:53.889Z,92943.19
2023-05-08T04:37:31.572Z,92940.59
2023-05-08T04:40:01.447Z,92938.47
2023-05-08T04:42:36.839Z,92939.66
2023-05-08T04:45:08.139Z,92933.50
2023-05-08T04:47:37.923Z,92927.22
2023-05-08T04:50:08.543Z,92933.84
2023-05-08T04:52:39.665Z,92930.13
2023-05-08T04:55:11.606Z,92934.31
2023-05-08T04:57:41.367Z,92935.88
2023-05-08T05:00:12.983Z,92940.16
2023-05-08T05:02:42.487Z,92950.25
2023-05-08T05:05:12.643Z,92946.94
2023-05-08T05:07:43.844Z,92947.28
2023-05-08T05:10:13.549Z,92946.09
2023-05-08T05:12:43.184Z,92950.47
2023-05-08T05:15:14.085Z,92943.38
2023-05-08T05:17:43.951Z,92937.38
2023-05-08T05:20:15.269Z,92934.94
2023-05-08T05:22:46.155Z,92928.84
2023-05-08T05:25:16.147Z,92936.19
2023-05-08T05:27:45.698Z,92933.94
2023-05-08T05:30:15.809Z,92929.19
2023-05-08T05:32:45.294Z,92925.13
2023-05-08T05:35:14.893Z,92929.88
2023-05-08T05:37:45.998Z,92928.56
2023-05-08T05:40:15.817Z,92931.22
2023-05-08T05:42:51.354Z,92925.44
2023-05-08T05:45:21.654Z,92930.56
2023-05-08T05:47:54.413Z,92924.78
2023-05-08T05:50:24.222Z,92919.69
2023-05-08T05:52:55.315Z,92914.31
2023-05-08T05:55:24.758Z,92914.19
2023-05-08T05:57:54.267Z,92921.25
2023-05-08T06:00:24.204Z,92914.06
2023-05-08T06:02:53.915Z,92919.44
2023-05-08T06:05:23.593Z,92913.66
2023-05-08T06:07:54.457Z,92920.72
2023-05-08T06:10:24.348Z,92917.38
2023-05-08T06:12:53.850Z,92925.97
2023-05-08T06:15:24.334Z,92920.88
2023-05-08T06:17:54.674Z,92920.88
2023-05-08T06:20:24.984Z,92915.59
2023-05-08T06:22:57.442Z,92911.84
2023-05-08T06:25:28.396Z,92911.84
2023-05-08T06:27:58.036Z,92913.53
2023-05-08T06:30:27.582Z,92905.91
2023-05-08T06:32:57.527Z,92910.59
2023-05-08T06:35:27.065Z,92904.34
2023-05-08T06:37:58.006Z,92907.78
2023-05-08T06:40:27.515Z,92914.34
2023-05-08T06:42:57.116Z,92907.44
2023-05-08T06:45:26.578Z,92910.28
2023-05-08T06:50:44.521Z,92902.81
2023-05-08T06:53:13.953Z,92903.91
2023-05-08T06:55:45.637Z,92904.00
2023-05-08T06:58:15.478Z,92908.38
2023-05-08T07:00:46.363Z,92898.75
2023-05-08T07:03:16.179Z,92903.00
2023-05-08T07:05:47.203Z,92891.56
2023-05-08T07:08:16.663Z,92893.28
2023-05-08T07:10:46.562Z,92898.75
2023-05-08T07:13:20.290Z,92894.91
2023-05-08T07:15:49.918Z,92897.44
2023-05-08T07:18:19.791Z,92900.97
2023-05-08T07:20:50.816Z,92903.75
2023-05-08T07:23:20.369Z,92901.28
2023-05-08T07:25:49.926Z,92896.16
2023-05-08T07:28:19.290Z,92892.31
2023-05-08T07:30:48.815Z,92890.06
2023-05-08T07:33:18.293Z,92891.66
2023-05-08T07:35:49.676Z,92886.34
2023-05-08T07:38:19.120Z,92894.84
2023-05-08T07:40:49.370Z,92889.78
2023-05-08T07:43:18.828Z,92890.78
2023-05-08T07:45:48.542Z,92895.97
2023-05-08T07:48:18.188Z,92897.31
2023-05-08T07:50:47.673Z,92898.84
2023-05-08T07:53:18.756Z,92895.13
2023-05-08T07:55:48.204Z,92897.13
2023-05-08T07:58:17.766Z,92899.25
2023-05-08T08:00:47.206Z,92900.56
2023-05-08T08:03:17.688Z,92899.75
2023-05-08T08:05:48.014Z,92900.88
2023-05-08T08:08:18.897Z,92896.06
2023-05-08T08:10:48.350Z,92901.69
2023-05-08T08:13:19.217Z,92901.56
2023-05-08T08:15:48.589Z,92900.66
2023-05-08T08:18:18.198Z,92901.66
2023-05-08T08:20:47.688Z,92901.00
2023-05-08T08:23:18.583Z,92896.03
2023-05-08T08:25:48.045Z,92897.66
2023-05-08T08:28:18.255Z,92889.53
2023-05-08T08:30:47.856Z,92897.03
2023-05-08T08:33:19.103Z,92890.72
2023-05-08T08:35:48.765Z,92893.38
2023-05-08T08:38:19.686Z,92893.56
2023-05-08T08:40:49.101Z,92892.56
2023-05-08T08:43:18.627Z,92887.25
2023-05-08T08:45:48.680Z,92880.06
2023-05-08T08:48:19.283Z,92882.91
2023-05-08T08:50:53.533Z,92875.44
2023-05-08T08:53:32.492Z,92881.75
2023-05-08T08:56:04.607Z,92882.72
2023-05-08T08:58:40.026Z,92880.03
2023-05-08T09:01:12.117Z,92878.91
2023-05-08T09:03:43.115Z,92873.28
2023-05-08T09:06:12.964Z,92873.72
2023-05-08T09:08:44.146Z,92876.63
2023-05-08T09:11:13.733Z,92865.44
2023-05-08T09:13:43.259Z,92873.72
2023-05-08T09:16:12.657Z,92863.81
2023-05-08T09:18:42.387Z,92857.25
2023-05-08T09:21:11.930Z,92860.16
2023-05-08T09:23:58.218Z,92858.00
2023-05-08T09:26:36.329Z,92854.19
2023-05-08T09:29:14.325Z,92854.38
2023-05-08T09:31:46.124Z,92842.22
2023-05-08T09:34:28.619Z,92842.69
2023-05-08T09:36:58.844Z,92832.50
2023-05-08T09:39:30.796Z,92830.59
2023-05-08T09:42:01.300Z,92830.69
2023-05-08T09:44:31.063Z,92835.47
2023-05-08T09:50:44.874Z,92814.41
2023-05-08T09:53:14.332Z,92818.16
2023-05-08T09:55:51.047Z,92808.09
2023-05-08T09:58:20.561Z,92812.59
2023-05-08T10:00:50.260Z,92812.69
2023-05-08T10:03:20.109Z,92811.94
2023-05-08T10:05:51.036Z,92809.81
2023-05-08T10:08:23.400Z,92808.13
2023-05-08T10:10:53.569Z,92804.84
2023-05-08T10:13:23.179Z,92800.53
2023-05-08T10:15:57.067Z,92802.53
2023-05-08T10:18:30.596Z,92796.09
2023-05-08T10:21:06.866Z,92799.16
2023-05-08T10:23:37.058Z,92802.44
2023-05-08T10:26:14.627Z,92806.47
2023-05-08T10:28:50.425Z,92799.03
2023-05-08T10:31:20.925Z,92798.38
2023-05-08T10:33:54.417Z,92785.81
2023-05-08T10:36:28.063Z,92802.56
2023-05-08T10:39:00.816Z,92797.63
2023-05-08T10:41:31.484Z,92806.31
2023-05-08T10:44:03.572Z,92805.84
2023-05-08T10:46:39.576Z,92800.69
2023-05-08T10:49:18.403Z,92798.00
2023-05-08T10:52:08.442Z,92794.56
2023-05-08T10:55:04.800Z,92789.06
2023-05-08T10:57:34.547Z,92795.66
2023-05-08T11:00:04.287Z,92794.75
2023-05-08T11:02:37.283Z,92794.19
2023-05-08T11:05:20.720Z,92794.09
2023-05-08T11:07:59.389Z,92800.22
2023-05-08T11:10:33.551Z,92802.13
2023-05-08T11:13:04.299Z,92807.78
2023-05-08T11:15:41.300Z,92804.44
2023-05-08T11:18:12.507Z,92800.69
2023-05-08T11:20:43.717Z,92803.72
2023-05-08T11:23:29.761Z,92802.56
2023-05-08T11:26:04.012Z,92802.16
2023-05-08T11:28:36.105Z,92801.78
2023-05-08T11:31:06.700Z,92803.56
2023-05-08T11:33:38.309Z,92796.13
2023-05-08T11:36:19.488Z,92802.72
2023-05-08T11:39:12.867Z,92802.47
2023-05-08T11:41:42.443Z,92800.81
2023-05-08T11:44:22.620Z,92804.31
2023-05-08T11:46:54.876Z,92799.00
2023-05-08T11:49:29.590Z,92797.34
2023-05-08T11:52:01.772Z,92797.00
2023-05-08T11:54:33.794Z,92785.72
2023-05-08T11:57:03.325Z,92791.22
2023-05-08T11:59:38.361Z,92784.47
2023-05-08T12:02:09.509Z,92787.31
2023-05-08T12:04:49.181Z,92785.19
2023-05-08T12:07:18.979Z,92783.72
2023-05-08T12:09:50.449Z,92783.88
2023-05-08T12:12:19.904Z,92794.69
2023-05-08T12:14:52.502Z,92792.28
2023-05-08T12:17:22.271Z,92787.94
2023-05-08T12:20:04.385Z,92788.63
2023-05-08T12:22:34.091Z,92787.94
2023-05-08T12:25:06.623Z,92791.66
2023-05-08T12:27:36.308Z,92799.28
2023-05-08T12:30:10.587Z,92798.00
2023-05-08T12:32:42.182Z,92787.25
2023-05-08T12:35:14.689Z,92783.03
2023-05-08T12:37:44.383Z,92785.88
2023-05-08T12:40:29.196Z,92785.88
2023-05-08T12:42:59.151Z,92784.03
2023-05-08T12:45:31.087Z,92784.63
2023-05-08T12:50:47.287Z,92772.72
2023-05-08T12:53:18.540Z,92774.38
2023-05-08T12:55:55.724Z,92772.56
2023-05-08T12:58:29.124Z,92774.63
2023-05-08T13:01:13.538Z,92773.63
2023-05-08T13:03:44.760Z,92771.78
2023-05-08T13:06:25.051Z,92779.06
2023-05-08T13:08:56.881Z,92763.88
2023-05-08T13:11:35.616Z,92764.53
2023-05-08T13:14:05.124Z,92764.00
2023-05-08T13:16:45.203Z,92771.94
2023-05-08T13:19:15.899Z,92775.34
2023-05-08T13:21:48.172Z,92767.44
2023-05-08T13:24:17.611Z,92769.16
2023-05-08T13:26:47.588Z,92753.91
2023-05-08T13:29:17.512Z,92760.94
2023-05-08T13:31:46.984Z,92768.50
2023-05-08T13:34:16.542Z,92764.88
2023-05-08T13:36:47.568Z,92756.78
2023-05-08T13:39:17.032Z,92756.78
2023-05-08T13:41:46.471Z,92745.66
2023-05-08T13:44:15.840Z,92744.53
2023-05-08T13:46:45.492Z,92746.13
2023-05-08T13:49:14.916Z,92747.72
2023-05-08T13:51:47.244Z,92736.69
2023-05-08T13:54:19.027Z,92739.44
2023-05-08T13:56:50.077Z,92734.69
2023-05-08T13:59:19.681Z,92728.28
2023-05-08T14:01:49.166Z,92728.50
2023-05-08T14:04:19.447Z,92730.47
2023-05-08T14:06:51.454Z,92736.28
2023-05-08T14:09:21.114Z,92731.66
2023-05-08T14:11:50.507Z,92743.47
2023-05-08T14:14:19.993Z,92745.34
2023-05-08T14:16:51.247Z,92742.63
2023-05-08T14:19:20.832Z,92749.25
2023-05-08T14:21:51.759Z,92751.66
2023-05-08T14:24:21.216Z,92747.38
2023-05-08T14:26:50.708Z,92739.44
2023-05-08T14:29:21.650Z,92744.41
2023-05-08T14:31:51.312Z,92743.72
2023-05-08T14:34:20.793Z,92747.00
2023-05-08T14:36:51.651Z,92744.63
2023-05-08T14:39:21.168Z,92755.59
2023-05-08T14:42:14.319Z,92751.75
2023-05-08T14:44:40.384Z,92760.41
2023-05-08T14:47:09.867Z,92763.72
2023-05-08T14:49:39.542Z,92763.91
2023-05-08T14:52:10.444Z,92759.50
2023-05-08T14:54:40.041Z,92761.84
2023-05-08T14:57:09.641Z,92766.41
2023-05-08T14:59:49.011Z,92764.78
2023-05-08T15:02:22.058Z,92768.53
2023-05-08T15:04:51.798Z,92774.84
2023-05-08T15:07:22.729Z,92773.75
2023-05-08T15:09:53.383Z,92776.59
2023-05-08T15:12:22.857Z,92777.50
2023-05-08T15:14:52.465Z,92774.75
2023-05-08T15:17:22.058Z,92764.66
2023-05-08T15:19:51.515Z,92773.53
2023-05-08T15:22:22.594Z,92777.78
2023-05-08T15:24:52.116Z,92774.97
2023-05-08T15:27:21.896Z,92763.09
2023-05-08T15:29:51.996Z,92760.28
2023-05-08T15:32:21.534Z,92757.53
2023-05-08T15:34:51.094Z,92756.16
2023-05-08T15:37:22.028Z,92757.28
2023-05-08T15:39:51.731Z,92765.47
2023-05-08T15:42:22.046Z,92763.63
2023-05-08T15:44:55.020Z,92774.75
2023-05-08T15:50:44.080Z,92794.00
2023-05-08T15:53:14.326Z,92799.59
2023-05-08T15:55:43.802Z,92795.91
2023-05-08T15:58:13.284Z,92804.84
2023-05-08T16:00:45.203Z,92808.47
2023-05-08T16:03:15.023Z,92795.88
2023-05-08T16:05:46.341Z,92803.38
2023-05-08T16:08:16.048Z,92795.38
2023-05-08T16:10:45.507Z,92799.97
2023-05-08T16:13:15.005Z,92799.16
2023-05-08T16:15:44.521Z,92792.03
2023-05-08T16:18:14.105Z,92792.50
2023-05-08T16:20:45.356Z,92802.59
2023-05-08T16:23:15.346Z,92808.97
2023-05-08T16:25:44.951Z,92803.44
2023-05-08T16:28:14.602Z,92802.88
2023-05-08T16:30:44.283Z,92800.25
2023-05-08T16:33:13.951Z,92806.63
2023-05-08T16:35:45.107Z,92800.13
2023-05-08T16:38:14.864Z,92806.09
2023-05-08T16:40:45.321Z,92807.88
2023-05-08T16:43:15.005Z,92812.16
2023-05-08T16:45:44.641Z,92811.28
2023-05-08T16:48:14.268Z,92824.81
2023-05-08T16:50:45.297Z,92819.72
2023-05-08T16:53:15.896Z,92813.50
2023-05-08T16:55:45.545Z,92815.16
2023-05-08T16:58:16.157Z,92826.31
2023-05-08T17:00:46.193Z,92836.38
2023-05-08T17:03:15.916Z,92845.06
2023-05-08T17:05:46.961Z,92854.16
2023-05-08T17:08:16.515Z,92859.00
2023-05-08T17:10:45.997Z,92860.13
2023-05-08T17:13:15.630Z,92861.41
2023-05-08T17:15:45.482Z,92860.28
2023-05-08T17:18:15.184Z,92854.22
2023-05-08T17:20:46.075Z,92852.13
2023-05-08T17:23:15.586Z,92858.03
2023-05-08T17:25:45.092Z,92856.38
2023-05-08T17:28:14.699Z,92853.44
2023-05-08T17:30:45.830Z,92850.13
2023-05-08T17:33:15.913Z,92851.63
2023-05-08T17:35:46.835Z,92852.75
2023-05-08T17:38:16.304Z,92844.13
2023-05-08T17:40:45.926Z,92850.19
2023-05-08T17:43:15.518Z,92852.56
2023-05-08T17:45:45.757Z,92852.13
2023-05-08T17:48:15.334Z,92858.31
2023-05-08T17:50:47.567Z,92862.84
2023-05-08T17:53:17.067Z,92866.78
2023-05-08T17:55:46.459Z,92865.53
2023-05-08T17:58:16.072Z,92868.59
2023-05-08T18:00:45.457Z,92872.75
2023-05-08T18:03:15.186Z,92878.00
2023-05-08T18:05:46.085Z,92888.66
2023-05-08T18:08:15.688Z,92893.63
2023-05-08T18:10:45.428Z,92896.78
2023-05-08T18:13:16.027Z,92893.84
2023-05-08T18:15:45.596Z,92898.41
2023-05-08T18:18:15.938Z,92898.06
2023-05-08T18:20:46.677Z,92900.16
2023-05-08T18:23:16.337Z,92911.28
2023-05-08T18:25:45.889Z,92904.38
2023-05-08T18:28:17.134Z,92912.69
2023-05-08T18:30:46.700Z,92914.31
2023-05-08T18:33:16.377Z,92924.63
2023-05-08T18:35:47.477Z,92925.69
2023-05-08T18:38:18.104Z,92933.44
2023-05-08T18:40:47.729Z,92932.91
2023-05-08T18:43:17.232Z,92930.47
2023-05-08T18:45:46.837Z,92930.81
2023-05-08T18:50:43.920Z,92938.50
2023-05-08T18:53:14.780Z,92941.03
2023-05-08T18:55:44.248Z,92951.41
2023-05-08T18:58:15.090Z,92943.75
2023-05-08T19:00:44.605Z,92954.66
2023-05-08T19:03:14.178Z,92961.81
2023-05-08T19:05:45.394Z,92955.88
2023-05-08T19:08:16.216Z,92955.31
2023-05-08T19:10:45.836Z,92962.09
2023-05-08T19:13:15.363Z,92955.50
2023-05-08T19:15:44.976Z,92958.94
2023-05-08T19:18:15.088Z,92973.03
2023-05-08T19:20:46.017Z,92965.25
2023-05-08T19:23:17.581Z,92963.59
2023-05-08T19:25:48.160Z,92961.44
2023-05-08T19:28:17.752Z,92961.31
2023-05-08T19:30:47.346Z,92966.56
2023-05-08T19:33:20.769Z,92966.16
2023-05-08T19:35:52.085Z,92970.19
2023-05-08T19:38:21.592Z,92970.31
2023-05-08T19:40:57.274Z,92975.44
2023-05-08T19:43:28.056Z,92972.94
2023-05-08T19:45:58.165Z,92983.03
2023-05-08T19:48:27.690Z,92970.50
2023-05-08T19:50:58.632Z,92973.94
2023-05-08T19:53:28.313Z,92973.06
2023-05-08T19:55:57.750Z,92975.06
2023-05-08T19:58:27.285Z,92978.00
2023-05-08T20:00:56.707Z,92982.03
2023-05-08T20:03:26.229Z,92979.66
2023-05-08T20:05:57.572Z,92987.44
2023-05-08T20:08:27.189Z,92978.53
2023-05-08T20:10:56.586Z,92981.75
2023-05-08T20:13:26.234Z,92967.91
2023-05-08T20:15:55.964Z,92980.25
2023-05-08T20:18:25.543Z,92987.16
2023-05-08T20:20:55.102Z,92983.50
2023-05-08T20:23:26.206Z,92980.41
2023-05-08T20:25:55.691Z,92982.44
2023-05-08T20:28:26.344Z,92980.44
2023-05-08T20:30:55.837Z,92977.00
2023-05-08T20:33:25.385Z,92976.16
2023-05-08T20:35:55.506Z,92977.09
2023-05-08T20:38:26.376Z,92973.44
2023-05-08T20:41:00.209Z,92986.06
2023-05-08T20:43:30.498Z,92985.00
2023-05-08T20:45:59.995Z,92985.59
2023-05-08T20:48:29.618Z,92982.75
2023-05-08T20:50:59.005Z,92989.25
2023-05-08T20:53:29.762Z,92977.59
2023-05-08T20:56:03.069Z,92978.47
2023-05-08T20:58:32.596Z,92977.63
2023-05-08T21:01:02.173Z,92982.50
2023-05-08T21:03:31.598Z,92985.47
2023-05-08T21:06:01.126Z,92975.84
2023-05-08T21:08:32.184Z,92982.13
2023-05-08T21:11:03.982Z,92973.94
2023-05-08T21:13:33.481Z,92978.69
2023-05-08T21:16:02.913Z,92970.13
2023-05-08T21:18:32.402Z,92977.97
2023-05-08T21:21:01.866Z,92983.56
2023-05-08T21:23:32.905Z,92986.66
2023-05-08T21:26:02.807Z,92982.16
2023-05-08T21:28:32.338Z,92973.22
2023-05-08T21:31:01.762Z,92969.19
2023-05-08T21:33:31.361Z,92972.38
2023-05-08T21:36:01.859Z,92973.81
2023-05-08T21:38:32.780Z,92964.31
2023-05-08T21:41:08.735Z,92968.69
2023-05-08T21:43:38.997Z,92957.16
2023-05-08T21:46:09.566Z,92961.94
2023-05-08T21:50:43.688Z,92962.75
2023-05-08T21:53:13.270Z,92967.75
2023-05-08T21:55:42.745Z,92951.47
2023-05-08T21:58:12.304Z,92951.47
2023-05-08T22:00:42.286Z,92949.56
2023-05-08T22:03:11.798Z,92949.66
2023-05-08T22:05:42.747Z,92953.38
2023-05-08T22:08:12.265Z,92952.66
2023-05-08T22:10:44.402Z,92959.31
2023-05-08T22:13:14.920Z,92954.44
2023-05-08T22:15:45.207Z,92962.63
2023-05-08T22:18:14.867Z,92963.22
2023-05-08T22:20:46.048Z,92961.31
2023-05-08T22:23:15.529Z,92962.03
2023-05-08T22:25:45.289Z,92958.00
2023-05-08T22:28:14.797Z,92961.00
2023-05-08T22:30:44.306Z,92967.66
2023-05-08T22:33:13.858Z,92966.56
2023-05-08T22:35:44.762Z,92963.47
2023-05-08T22:38:14.340Z,92970.34
2023-05-08T22:40:44.136Z,92967.41
2023-05-08T22:43:13.735Z,92967.66
2023-05-08T22:45:43.413Z,92974.19
2023-05-08T22:48:12.950Z,92970.13
2023-05-08T22:50:42.560Z,92959.44
2023-05-08T22:53:13.461Z,92965.25
2023-05-08T22:55:42.945Z,92960.38
2023-05-08T22:58:12.384Z,92972.28
2023-05-08T23:00:42.932Z,92971.66
2023-05-08T23:03:12.405Z,92967.28
2023-05-08T23:05:41.967Z,92975.94
2023-05-08T23:08:12.854Z,92981.66
2023-05-08T23:10:42.630Z,92986.75
2023-05-08T23:13:12.271Z,92985.00
2023-05-08T23:15:41.996Z,92991.41
2023-05-08T23:18:11.561Z,92996.88
2023-05-08T23:20:40.977Z,92991.06
2023-05-08T23:23:11.902Z,92996.06
2023-05-08T23:25:41.266Z,92990.84
2023-05-08T23:28:10.700Z,92987.72
2023-05-08T23:30:40.107Z,92984.63
2023-05-08T23:33:09.758Z,92982.63
2023-05-08T23:35:39.279Z,92989.25
2023-05-08T23:38:08.817Z,92990.31
2023-05-08T23:40:39.624Z,92985.81
2023-05-08T23:43:09.196Z,92990.44
2023-05-08T23:45:38.788Z,92981.28
2023-05-08T23:48:08.742Z,92976.78
2023-05-08T23:50:38.262Z,92985.22
2023-05-08T23:53:07.724Z,92971.75
2023-05-08T23:55:39.611Z,92968.16
2023-05-08T23:58:09.068Z,92965.06
